sensor_id;sensor_type;location;lat;lon;timestamp;pressure;altitude;pressure_sealevel;temperature;humidity
55187;BME280;55457;52.002;5.464;2024-02-04T00:00:23;102110.63;;;20.75;46.95
55187;BME280;55457;52.002;5.464;2024-02-04T00:02:48;102124.19;;;20.75;47.36
55187;BME280;55457;52.002;5.464;2024-02-04T00:05:14;102116.06;;;20.75;47.39
55187;BME280;55457;52.002;5.464;2024-02-04T00:07:39;102124.19;;;20.75;47.06
55187;BME280;55457;52.002;5.464;2024-02-04T00:10:05;102121.47;;;20.75;47.12
55187;BME280;55457;52.002;5.464;2024-02-04T00:12:30;102115.63;;;20.71;47.26
55187;BME280;55457;52.002;5.464;2024-02-04T00:14:56;102125.22;;;20.74;47.18
55187;BME280;55457;52.002;5.464;2024-02-04T00:17:21;102126.88;;;20.75;47.16
55187;BME280;55457;52.002;5.464;2024-02-04T00:19:46;102116.06;;;20.75;47.15
55187;BME280;55457;52.002;5.464;2024-02-04T00:22:11;102109.56;;;20.76;47.43
55187;BME280;55457;52.002;5.464;2024-02-04T00:24:37;102125.84;;;20.76;47.27
55187;BME280;55457;52.002;5.464;2024-02-04T00:27:02;102125.84;;;20.76;47.63
55187;BME280;55457;52.002;5.464;2024-02-04T00:29:28;102123.13;;;20.76;47.44
55187;BME280;55457;52.002;5.464;2024-02-04T00:31:53;102130.19;;;20.77;47.25
55187;BME280;55457;52.002;5.464;2024-02-04T00:34:18;102124.78;;;20.77;47.43
55187;BME280;55457;52.002;5.464;2024-02-04T00:36:43;102115.81;;;20.76;47.27
55187;BME280;55457;52.002;5.464;2024-02-04T00:39:09;102117.72;;;20.76;47.48
55187;BME280;55457;52.002;5.464;2024-02-04T00:41:34;102127.72;;;20.75;47.44
55187;BME280;55457;52.002;5.464;2024-02-04T00:44:00;102132.09;;;20.76;47.28
55187;BME280;55457;52.002;5.464;2024-02-04T00:46:26;102124.78;;;20.77;47.35
55187;BME280;55457;52.002;5.464;2024-02-04T00:48:51;102123.13;;;20.76;47.33
55187;BME280;55457;52.002;5.464;2024-02-04T00:51:17;102119.34;;;20.77;47.63
55187;BME280;55457;52.002;5.464;2024-02-04T00:53:43;102116.66;;;20.77;47.47
55187;BME280;55457;52.002;5.464;2024-02-04T00:56:08;102123.13;;;20.76;47.66
55187;BME280;55457;52.002;5.464;2024-02-04T00:58:35;102119.34;;;20.77;47.55
55187;BME280;55457;52.002;5.464;2024-02-04T01:01:00;102108.53;;;20.77;47.25
55187;BME280;55457;52.002;5.464;2024-02-04T01:03:25;102113.13;;;20.76;47.36
55187;BME280;55457;52.002;5.464;2024-02-04T01:05:51;102108.53;;;20.77;47.31
55187;BME280;55457;52.002;5.464;2024-02-04T01:08:16;102102.28;;;20.76;47.21
55187;BME280;55457;52.002;5.464;2024-02-04T01:10:41;102107.50;;;20.78;47.37
55187;BME280;55457;52.002;5.464;2024-02-04T01:13:07;102111.22;;;20.77;47.34
55187;BME280;55457;52.002;5.464;2024-02-04T01:15:32;102108.53;;;20.77;47.31
55187;BME280;55457;52.002;5.464;2024-02-04T01:17:57;102102.28;;;20.76;47.34
55187;BME280;55457;52.002;5.464;2024-02-04T01:20:23;102106.66;;;20.77;47.39
55187;BME280;55457;52.002;5.464;2024-02-04T01:22:48;102102.09;;;20.78;47.43
55187;BME280;55457;52.002;5.464;2024-02-04T01:25:13;102099.38;;;20.78;47.56
55187;BME280;55457;52.002;5.464;2024-02-04T01:27:39;102093.09;;;20.77;47.41
55187;BME280;55457;52.002;5.464;2024-02-04T01:30:05;102092.28;;;20.77;47.50
55187;BME280;55457;52.002;5.464;2024-02-04T01:32:30;102101.22;;;20.77;47.36
55187;BME280;55457;52.002;5.464;2024-02-04T01:34:56;102105.63;;;20.78;47.68
55187;BME280;55457;52.002;5.464;2024-02-04T01:37:22;102107.50;;;20.78;47.67
55187;BME280;55457;52.002;5.464;2024-02-04T01:39:47;102111.22;;;20.77;47.29
55187;BME280;55457;52.002;5.464;2024-02-04T01:42:12;102107.50;;;20.78;47.43
55187;BME280;55457;52.002;5.464;2024-02-04T01:44:38;102104.78;;;20.78;47.39
55187;BME280;55457;52.002;5.464;2024-02-04T01:47:03;102093.53;;;20.74;47.72
55187;BME280;55457;52.002;5.464;2024-02-04T01:49:28;102107.50;;;20.78;47.69
55187;BME280;55457;52.002;5.464;2024-02-04T01:51:54;102098.53;;;20.77;47.59
55187;BME280;55457;52.002;5.464;2024-02-04T01:54:22;102098.13;;;20.74;47.54
55187;BME280;55457;52.002;5.464;2024-02-04T01:56:49;102107.50;;;20.78;47.80
55187;BME280;55457;52.002;5.464;2024-02-04T01:59:16;102111.03;;;20.78;47.52
55187;BME280;55457;52.002;5.464;2024-02-04T02:01:43;102109.34;;;20.77;47.62
55187;BME280;55457;52.002;5.464;2024-02-04T02:04:08;102120.19;;;20.77;47.67
55187;BME280;55457;52.002;5.464;2024-02-04T02:06:34;102118.34;;;20.78;47.43
55187;BME280;55457;52.002;5.464;2024-02-04T02:09:06;102116.66;;;20.77;47.73
55187;BME280;55457;52.002;5.464;2024-02-04T02:11:43;102123.13;;;20.76;47.57
55187;BME280;55457;52.002;5.464;2024-02-04T02:14:14;102123.94;;;20.76;47.51
55187;BME280;55457;52.002;5.464;2024-02-04T02:16:43;102123.13;;;20.76;47.60
55187;BME280;55457;52.002;5.464;2024-02-04T02:22:09;102112.28;;;20.76;47.55
55187;BME280;55457;52.002;5.464;2024-02-04T02:24:38;102114.16;;;20.75;47.75
55187;BME280;55457;52.002;5.464;2024-02-04T02:27:04;102110.63;;;20.75;47.56
55187;BME280;55457;52.002;5.464;2024-02-04T02:29:31;102104.38;;;20.74;47.75
55187;BME280;55457;52.002;5.464;2024-02-04T02:31:58;102098.75;;;20.76;47.74
55187;BME280;55457;52.002;5.464;2024-02-04T02:34:24;102099.78;;;20.75;47.47
55187;BME280;55457;52.002;5.464;2024-02-04T02:36:54;102097.91;;;20.75;47.79
55187;BME280;55457;52.002;5.464;2024-02-04T02:39:24;102095.19;;;20.75;47.71
55187;BME280;55457;52.002;5.464;2024-02-04T02:41:52;102091.66;;;20.75;47.70
55187;BME280;55457;52.002;5.464;2024-02-04T02:44:19;102089.78;;;20.75;47.85
55187;BME280;55457;52.002;5.464;2024-02-04T02:46:46;102088.97;;;20.75;47.55
55187;BME280;55457;52.002;5.464;2024-02-04T02:49:13;102092.50;;;20.75;47.79
55187;BME280;55457;52.002;5.464;2024-02-04T02:51:38;102088.13;;;20.74;47.68
55187;BME280;55457;52.002;5.464;2024-02-04T02:54:03;102094.38;;;20.75;47.61
55187;BME280;55457;52.002;5.464;2024-02-04T02:56:29;102092.72;;;20.74;47.75
55187;BME280;55457;52.002;5.464;2024-02-04T02:58:54;102097.09;;;20.75;47.79
55187;BME280;55457;52.002;5.464;2024-02-04T03:01:19;102098.13;;;20.74;47.65
55187;BME280;55457;52.002;5.464;2024-02-04T03:03:45;102093.53;;;20.74;47.54
55187;BME280;55457;52.002;5.464;2024-02-04T03:06:10;102102.72;;;20.73;47.68
55187;BME280;55457;52.002;5.464;2024-02-04T03:08:35;102100.84;;;20.74;47.66
55187;BME280;55457;52.002;5.464;2024-02-04T03:11:00;102110.84;;;20.73;47.62
55187;BME280;55457;52.002;5.464;2024-02-04T03:13:26;102097.31;;;20.73;47.80
55187;BME280;55457;52.002;5.464;2024-02-04T03:15:51;102100.03;;;20.73;47.65
55187;BME280;55457;52.002;5.464;2024-02-04T03:18:16;102108.16;;;20.73;47.73
55187;BME280;55457;52.002;5.464;2024-02-04T03:20:42;102089.38;;;20.72;47.83
55187;BME280;55457;52.002;5.464;2024-02-04T03:23:07;102089.38;;;20.72;47.64
55187;BME280;55457;52.002;5.464;2024-02-04T03:25:32;102091.06;;;20.73;47.84
55187;BME280;55457;52.002;5.464;2024-02-04T03:27:58;102083.97;;;20.72;47.87
55187;BME280;55457;52.002;5.464;2024-02-04T03:30:23;102085.66;;;20.73;47.80
55187;BME280;55457;52.002;5.464;2024-02-04T03:32:48;102102.91;;;20.72;47.84
55187;BME280;55457;52.002;5.464;2024-02-04T03:35:14;102087.72;;;20.71;47.60
55187;BME280;55457;52.002;5.464;2024-02-04T03:37:39;102073.56;;;20.69;47.85
55187;BME280;55457;52.002;5.464;2024-02-04T03:40:05;102082.31;;;20.71;47.85
55187;BME280;55457;52.002;5.464;2024-02-04T03:42:30;102077.72;;;20.71;47.96
55187;BME280;55457;52.002;5.464;2024-02-04T03:44:56;102075.00;;;20.71;47.77
55187;BME280;55457;52.002;5.464;2024-02-04T03:47:21;102079.00;;;20.69;47.89
55187;BME280;55457;52.002;5.464;2024-02-04T03:49:46;102085.00;;;20.71;48.00
55187;BME280;55457;52.002;5.464;2024-02-04T03:52:12;102082.31;;;20.71;47.67
55187;BME280;55457;52.002;5.464;2024-02-04T03:54:37;102089.59;;;20.70;47.74
55187;BME280;55457;52.002;5.464;2024-02-04T03:57:02;102085.84;;;20.71;47.81
55187;BME280;55457;52.002;5.464;2024-02-04T03:59:28;102105.63;;;20.72;47.78
55187;BME280;55457;52.002;5.464;2024-02-04T04:01:53;102119.19;;;20.72;47.98
55187;BME280;55457;52.002;5.464;2024-02-04T04:04:20;102112.75;;;20.73;47.91
55187;BME280;55457;52.002;5.464;2024-02-04T04:06:45;102096.69;;;20.71;47.70
55187;BME280;55457;52.002;5.464;2024-02-04T04:09:11;102098.97;;;20.74;47.91
55187;BME280;55457;52.002;5.464;2024-02-04T04:11:37;102088.97;;;20.75;47.65
55187;BME280;55457;52.002;5.464;2024-02-04T04:14:02;102089.78;;;20.75;47.68
55187;BME280;55457;52.002;5.464;2024-02-04T04:16:27;102080.59;;;20.76;47.70
55187;BME280;55457;52.002;5.464;2024-02-04T04:18:53;102076.00;;;20.77;47.59
55187;BME280;55457;52.002;5.464;2024-02-04T04:21:18;102072.28;;;20.78;47.86
55187;BME280;55457;52.002;5.464;2024-02-04T04:23:44;102069.56;;;20.78;47.82
55187;BME280;55457;52.002;5.464;2024-02-04T04:26:10;102065.59;;;20.80;47.55
55187;BME280;55457;52.002;5.464;2024-02-04T04:28:35;102071.84;;;20.81;47.82
55187;BME280;55457;52.002;5.464;2024-02-04T04:31:00;102064.16;;;20.78;47.54
55187;BME280;55457;52.002;5.464;2024-02-04T04:33:26;102066.41;;;20.81;47.51
55187;BME280;55457;52.002;5.464;2024-02-04T04:35:51;102069.75;;;20.83;47.70
55187;BME280;55457;52.002;5.464;2024-02-04T04:38:16;102064.34;;;20.83;47.73
55187;BME280;55457;52.002;5.464;2024-02-04T04:40:42;102069.75;;;20.83;47.53
55187;BME280;55457;52.002;5.464;2024-02-04T04:43:07;102066.81;;;20.84;47.62
55187;BME280;55457;52.002;5.464;2024-02-04T04:45:32;102060.56;;;20.84;47.78
55187;BME280;55457;52.002;5.464;2024-02-04T04:47:58;102048.69;;;20.85;47.37
55187;BME280;55457;52.002;5.464;2024-02-04T04:50:23;102056.81;;;20.85;47.85
55187;BME280;55457;52.002;5.464;2024-02-04T04:52:49;102051.38;;;20.85;47.56
55187;BME280;55457;52.002;5.464;2024-02-04T04:55:14;102047.03;;;20.84;47.71
55187;BME280;55457;52.002;5.464;2024-02-04T04:57:39;102040.56;;;20.85;47.89
55187;BME280;55457;52.002;5.464;2024-02-04T05:00:05;102038.91;;;20.84;47.48
55187;BME280;55457;52.002;5.464;2024-02-04T05:02:36;102045.97;;;20.85;47.73
55187;BME280;55457;52.002;5.464;2024-02-04T05:05:01;102051.38;;;20.85;47.71
55187;BME280;55457;52.002;5.464;2024-02-04T05:07:26;102047.84;;;20.84;47.61
55187;BME280;55457;52.002;5.464;2024-02-04T05:09:52;102046.78;;;20.85;47.76
55187;BME280;55457;52.002;5.464;2024-02-04T05:12:17;102038.06;;;20.83;47.83
55187;BME280;55457;52.002;5.464;2024-02-04T05:14:43;102039.50;;;20.86;47.69
55187;BME280;55457;52.002;5.464;2024-02-04T05:17:08;102028.66;;;20.86;47.63
55187;BME280;55457;52.002;5.464;2024-02-04T05:19:34;102037.25;;;20.83;47.63
55187;BME280;55457;52.002;5.464;2024-02-04T05:22:00;102030.97;;;20.82;47.70
55187;BME280;55457;52.002;5.464;2024-02-04T05:24:25;102047.63;;;20.86;47.76
55187;BME280;55457;52.002;5.464;2024-02-04T05:26:51;102039.50;;;20.86;47.71
55187;BME280;55457;52.002;5.464;2024-02-04T05:29:16;102037.84;;;20.85;47.75
55187;BME280;55457;52.002;5.464;2024-02-04T05:31:42;102035.13;;;20.85;48.05
55187;BME280;55457;52.002;5.464;2024-02-04T05:34:08;102036.78;;;20.86;47.54
55187;BME280;55457;52.002;5.464;2024-02-04T05:36:33;102029.72;;;20.85;47.82
55187;BME280;55457;52.002;5.464;2024-02-04T05:39:11;102035.13;;;20.85;47.89
55187;BME280;55457;52.002;5.464;2024-02-04T05:41:37;102027.00;;;20.85;47.99
55187;BME280;55457;52.002;5.464;2024-02-04T05:44:02;102018.88;;;20.85;47.80
55187;BME280;55457;52.002;5.464;2024-02-04T05:46:28;102024.28;;;20.85;47.99
55187;BME280;55457;52.002;5.464;2024-02-04T05:48:53;102025.94;;;20.86;47.77
55187;BME280;55457;52.002;5.464;2024-02-04T05:51:18;102016.78;;;20.87;47.95
55187;BME280;55457;52.002;5.464;2024-02-04T05:53:44;102027.59;;;20.87;47.70
55187;BME280;55457;52.002;5.464;2024-02-04T05:56:09;102024.69;;;20.89;47.95
55187;BME280;55457;52.002;5.464;2024-02-04T05:58:34;102022.19;;;20.87;47.79
55187;BME280;55457;52.002;5.464;2024-02-04T06:01:00;102025.53;;;20.89;47.86
55187;BME280;55457;52.002;5.464;2024-02-04T06:03:25;102018.44;;;20.88;47.88
55187;BME280;55457;52.002;5.464;2024-02-04T06:05:50;102006.38;;;20.84;47.73
55187;BME280;55457;52.002;5.464;2024-02-04T06:08:15;101998.44;;;20.89;48.00
55187;BME280;55457;52.002;5.464;2024-02-04T06:10:41;101985.94;;;20.88;47.84
55187;BME280;55457;52.002;5.464;2024-02-04T06:13:06;101987.59;;;20.89;47.98
55187;BME280;55457;52.002;5.464;2024-02-04T06:15:32;101985.94;;;20.88;47.84
55187;BME280;55457;52.002;5.464;2024-02-04T06:17:57;101976.13;;;20.87;47.68
55187;BME280;55457;52.002;5.464;2024-02-04T06:20:22;101978.84;;;20.87;47.79
55187;BME280;55457;52.002;5.464;2024-02-04T06:22:48;101979.66;;;20.88;47.62
55187;BME280;55457;52.002;5.464;2024-02-04T06:25:13;101980.53;;;20.88;47.84
55187;BME280;55457;52.002;5.464;2024-02-04T06:27:39;101981.53;;;20.87;47.74
55187;BME280;55457;52.002;5.464;2024-02-04T06:30:06;101975.53;;;20.85;47.50
55187;BME280;55457;52.002;5.464;2024-02-04T06:32:31;101979.28;;;20.84;47.67
55187;BME280;55457;52.002;5.464;2024-02-04T06:34:56;101980.53;;;20.88;47.89
55187;BME280;55457;52.002;5.464;2024-02-04T06:37:23;101991.34;;;20.88;47.90
55187;BME280;55457;52.002;5.464;2024-02-04T06:39:48;101974.25;;;20.88;47.71
55187;BME280;55457;52.002;5.464;2024-02-04T06:42:13;101975.09;;;20.88;47.88
55187;BME280;55457;52.002;5.464;2024-02-04T06:44:43;101978.84;;;20.87;47.61
55187;BME280;55457;52.002;5.464;2024-02-04T06:47:08;101984.25;;;20.87;47.55
55187;BME280;55457;52.002;5.464;2024-02-04T06:49:34;101978.84;;;20.87;47.90
55187;BME280;55457;52.002;5.464;2024-02-04T06:51:59;101973.41;;;20.87;47.68
55187;BME280;55457;52.002;5.464;2024-02-04T06:54:24;101970.69;;;20.87;47.88
55187;BME280;55457;52.002;5.464;2024-02-04T06:56:51;101970.69;;;20.87;47.51
55187;BME280;55457;52.002;5.464;2024-02-04T06:59:17;101972.59;;;20.87;47.71
55187;BME280;55457;52.002;5.464;2024-02-04T07:01:43;101966.34;;;20.86;47.43
55187;BME280;55457;52.002;5.464;2024-02-04T07:04:08;101975.09;;;20.88;47.79
55187;BME280;55457;52.002;5.464;2024-02-04T07:06:33;101978.84;;;20.87;47.74
55187;BME280;55457;52.002;5.464;2024-02-04T07:08:58;101973.41;;;20.87;47.79
55187;BME280;55457;52.002;5.464;2024-02-04T07:11:24;101972.59;;;20.87;47.75
55187;BME280;55457;52.002;5.464;2024-02-04T07:13:49;101974.47;;;20.86;47.79
55187;BME280;55457;52.002;5.464;2024-02-04T07:16:14;101985.09;;;20.88;47.67
55187;BME280;55457;52.002;5.464;2024-02-04T07:18:40;101981.34;;;20.89;47.74
55187;BME280;55457;52.002;5.464;2024-02-04T07:21:05;101975.09;;;20.88;47.60
55187;BME280;55457;52.002;5.464;2024-02-04T07:23:30;101968.81;;;20.88;47.62
55187;BME280;55457;52.002;5.464;2024-02-04T07:25:56;101962.56;;;20.87;47.92
55187;BME280;55457;52.002;5.464;2024-02-04T07:28:21;101969.69;;;20.88;47.67
55187;BME280;55457;52.002;5.464;2024-02-04T07:30:47;101963.41;;;20.88;47.61
55187;BME280;55457;52.002;5.464;2024-02-04T07:33:12;101966.97;;;20.88;47.64
55187;BME280;55457;52.002;5.464;2024-02-04T07:35:37;101962.56;;;20.87;47.68
55187;BME280;55457;52.002;5.464;2024-02-04T07:38:03;101978.84;;;20.87;47.61
55187;BME280;55457;52.002;5.464;2024-02-04T07:40:28;101974.25;;;20.88;47.63
55187;BME280;55457;52.002;5.464;2024-02-04T07:42:55;101978.84;;;20.87;47.85
55187;BME280;55457;52.002;5.464;2024-02-04T07:45:20;101964.91;;;20.83;47.91
55187;BME280;55457;52.002;5.464;2024-02-04T07:47:45;101972.59;;;20.87;47.84
55187;BME280;55457;52.002;5.464;2024-02-04T07:50:11;101967.63;;;20.83;47.87
55187;BME280;55457;52.002;5.464;2024-02-04T07:52:37;101981.53;;;20.87;47.70
55187;BME280;55457;52.002;5.464;2024-02-04T07:55:02;101980.53;;;20.88;47.79
55187;BME280;55457;52.002;5.464;2024-02-04T07:57:27;101983.22;;;20.88;47.60
55187;BME280;55457;52.002;5.464;2024-02-04T07:59:53;101984.25;;;20.87;47.91
55187;BME280;55457;52.002;5.464;2024-02-04T08:02:18;101973.22;;;20.89;48.23
55187;BME280;55457;52.002;5.464;2024-02-04T08:04:43;101965.91;;;20.89;48.78
55187;BME280;55457;52.002;5.464;2024-02-04T08:07:09;101966.50;;;20.91;49.08
55187;BME280;55457;52.002;5.464;2024-02-04T08:09:34;101963.81;;;20.91;49.47
55187;BME280;55457;52.002;5.464;2024-02-04T08:12:00;101967.13;;;20.93;49.52
55187;BME280;55457;52.002;5.464;2024-02-04T08:14:25;101967.34;;;20.92;50.00
55187;BME280;55457;52.002;5.464;2024-02-04T08:16:50;101964.84;;;20.90;50.10
55187;BME280;55457;52.002;5.464;2024-02-04T08:19:16;101959.66;;;20.89;49.88
55187;BME280;55457;52.002;5.464;2024-02-04T08:21:42;101962.56;;;20.87;50.38
55187;BME280;55457;52.002;5.464;2024-02-04T08:24:07;101961.56;;;20.88;50.44
55187;BME280;55457;52.002;5.464;2024-02-04T08:26:32;101960.91;;;20.86;50.76
55187;BME280;55457;52.002;5.464;2024-02-04T08:28:58;101953.84;;;20.85;50.75
55187;BME280;55457;52.002;5.464;2024-02-04T08:31:24;101958.22;;;20.86;50.78
55187;BME280;55457;52.002;5.464;2024-02-04T08:33:49;101957.16;;;20.87;50.55
55187;BME280;55457;52.002;5.464;2024-02-04T08:36:14;101960.09;;;20.85;50.61
55187;BME280;55457;52.002;5.464;2024-02-04T08:38:40;101947.59;;;20.84;50.99
55187;BME280;55457;52.002;5.464;2024-02-04T08:41:06;101950.53;;;20.83;50.76
55187;BME280;55457;52.002;5.464;2024-02-04T08:43:32;101954.69;;;20.85;50.79
55187;BME280;55457;52.002;5.464;2024-02-04T08:45:57;101940.91;;;20.87;50.64
55187;BME280;55457;52.002;5.464;2024-02-04T08:48:22;101947.38;;;20.86;50.66
55187;BME280;55457;52.002;5.464;2024-02-04T08:50:47;101949.25;;;20.85;50.82
55187;BME280;55457;52.002;5.464;2024-02-04T08:53:13;101959.25;;;20.85;50.57
55187;BME280;55457;52.002;5.464;2024-02-04T08:55:38;101948.44;;;20.85;50.68
55187;BME280;55457;52.002;5.464;2024-02-04T08:58:04;101948.84;;;20.82;50.21
55187;BME280;55457;52.002;5.464;2024-02-04T09:00:30;101943.00;;;20.85;50.78
55187;BME280;55457;52.002;5.464;2024-02-04T09:02:56;101944.06;;;20.84;50.34
55187;BME280;55457;52.002;5.464;2024-02-04T09:05:22;101943.00;;;20.85;50.48
55187;BME280;55457;52.002;5.464;2024-02-04T09:07:47;101948.44;;;20.85;50.60
55187;BME280;55457;52.002;5.464;2024-02-04T09:10:12;101939.47;;;20.84;50.56
55187;BME280;55457;52.002;5.464;2024-02-04T09:12:38;101943.00;;;20.85;50.51
55187;BME280;55457;52.002;5.464;2024-02-04T09:15:04;101936.38;;;20.81;50.39
55187;BME280;55457;52.002;5.464;2024-02-04T09:17:30;101934.28;;;20.83;50.16
55187;BME280;55457;52.002;5.464;2024-02-04T09:19:55;101944.25;;;20.82;50.39
55187;BME280;55457;52.002;5.464;2024-02-04T09:22:20;101932.59;;;20.82;50.35
55187;BME280;55457;52.002;5.464;2024-02-04T09:24:46;101951.38;;;20.83;50.19
55187;BME280;55457;52.002;5.464;2024-02-04T09:27:11;101946.16;;;20.82;50.32
55187;BME280;55457;52.002;5.464;2024-02-04T09:29:36;101949.69;;;20.82;50.44
55187;BME280;55457;52.002;5.464;2024-02-04T09:32:02;101953.03;;;20.84;50.24
55187;BME280;55457;52.002;5.464;2024-02-04T09:34:27;101954.91;;;20.84;50.24
55187;BME280;55457;52.002;5.464;2024-02-04T09:36:52;101949.25;;;20.85;50.60
55187;BME280;55457;52.002;5.464;2024-02-04T09:39:18;101945.72;;;20.85;50.17
55187;BME280;55457;52.002;5.464;2024-02-04T09:41:44;101955.50;;;20.86;49.99
55187;BME280;55457;52.002;5.464;2024-02-04T09:44:09;101946.31;;;20.87;50.50
55187;BME280;55457;52.002;5.464;2024-02-04T09:46:35;101937.81;;;20.83;50.22
55187;BME280;55457;52.002;5.464;2024-02-04T09:49:00;101957.16;;;20.87;50.42
55187;BME280;55457;52.002;5.464;2024-02-04T09:51:28;101951.72;;;20.87;49.91
55187;BME280;55457;52.002;5.464;2024-02-04T09:53:55;101944.25;;;20.89;49.85
55187;BME280;55457;52.002;5.464;2024-02-04T09:56:25;101942.59;;;20.88;50.18
55187;BME280;55457;52.002;5.464;2024-02-04T09:58:50;101951.53;;;20.89;50.21
55187;BME280;55457;52.002;5.464;2024-02-04T10:01:18;101943.19;;;20.90;49.89
55187;BME280;55457;52.002;5.464;2024-02-04T10:03:44;101943.19;;;20.90;49.96
55187;BME280;55457;52.002;5.464;2024-02-04T10:06:09;101946.13;;;20.89;49.86
55187;BME280;55457;52.002;5.464;2024-02-04T10:08:35;101949.66;;;20.89;49.76
55187;BME280;55457;52.002;5.464;2024-02-04T10:11:01;101944.44;;;20.88;49.75
55187;BME280;55457;52.002;5.464;2024-02-04T10:13:26;101950.91;;;20.87;49.69
55187;BME280;55457;52.002;5.464;2024-02-04T10:15:52;101952.78;;;20.86;50.11
55187;BME280;55457;52.002;5.464;2024-02-04T10:18:18;101948.19;;;20.87;49.96
55187;BME280;55457;52.002;5.464;2024-02-04T10:20:43;101944.66;;;20.86;49.48
55187;BME280;55457;52.002;5.464;2024-02-04T10:23:09;101950.09;;;20.86;49.94
55187;BME280;55457;52.002;5.464;2024-02-04T10:25:34;101945.50;;;20.87;49.86
55187;BME280;55457;52.002;5.464;2024-02-04T10:27:59;101950.09;;;20.86;49.69
55187;BME280;55457;52.002;5.464;2024-02-04T10:30:25;101950.09;;;20.86;49.63
55187;BME280;55457;52.002;5.464;2024-02-04T10:32:53;101951.97;;;20.85;49.78
55187;BME280;55457;52.002;5.464;2024-02-04T10:35:22;101944.06;;;20.84;49.65
55187;BME280;55457;52.002;5.464;2024-02-04T10:37:52;101951.13;;;20.85;49.73
55187;BME280;55457;52.002;5.464;2024-02-04T10:40:18;101957.16;;;20.87;49.77
55187;BME280;55457;52.002;5.464;2024-02-04T10:42:43;101959.03;;;20.87;49.36
55187;BME280;55457;52.002;5.464;2024-02-04T10:45:10;101963.63;;;20.86;49.67
55187;BME280;55457;52.002;5.464;2024-02-04T10:47:39;101963.03;;;20.84;49.49
55187;BME280;55457;52.002;5.464;2024-02-04T10:50:05;101970.09;;;20.85;49.38
55187;BME280;55457;52.002;5.464;2024-02-04T10:52:39;101970.94;;;20.85;49.60
55187;BME280;55457;52.002;5.464;2024-02-04T10:55:11;101961.97;;;20.85;49.21
55187;BME280;55457;52.002;5.464;2024-02-04T10:57:39;101965.75;;;20.84;49.43
55187;BME280;55457;52.002;5.464;2024-02-04T11:00:06;101969.50;;;20.83;49.43
55187;BME280;55457;52.002;5.464;2024-02-04T11:02:36;101957.63;;;20.84;49.59
55187;BME280;55457;52.002;5.464;2024-02-04T11:05:03;101956.56;;;20.85;49.64
55187;BME280;55457;52.002;5.464;2024-02-04T11:07:33;101957.63;;;20.84;49.51
55187;BME280;55457;52.002;5.464;2024-02-04T11:10:00;101951.56;;;20.82;49.47
55187;BME280;55457;52.002;5.464;2024-02-04T11:12:27;101952.03;;;20.79;49.87
55187;BME280;55457;52.002;5.464;2024-02-04T11:14:55;101963.47;;;20.81;49.45
55187;BME280;55457;52.002;5.464;2024-02-04T11:20:49;101962.41;;;20.82;49.79
55187;BME280;55457;52.002;5.464;2024-02-04T11:25:57;101965.13;;;20.82;49.56
55187;BME280;55457;52.002;5.464;2024-02-04T11:28:23;101955.09;;;20.82;49.54
55187;BME280;55457;52.002;5.464;2024-02-04T11:30:51;101953.25;;;20.83;49.40
55187;BME280;55457;52.002;5.464;2024-02-04T11:33:20;101943.00;;;20.85;49.44
55187;BME280;55457;52.002;5.464;2024-02-04T11:35:46;101943.00;;;20.85;49.47
55187;BME280;55457;52.002;5.464;2024-02-04T11:38:17;101943.84;;;20.85;49.21
55187;BME280;55457;52.002;5.464;2024-02-04T11:40:42;101933.81;;;20.86;49.00
55187;BME280;55457;52.002;5.464;2024-02-04T11:43:10;101919.69;;;20.84;49.11
55187;BME280;55457;52.002;5.464;2024-02-04T11:45:40;101912.97;;;20.87;49.41
55187;BME280;55457;52.002;5.464;2024-02-04T11:48:10;101920.91;;;20.88;49.12
55187;BME280;55457;52.002;5.464;2024-02-04T11:50:36;101910.50;;;20.85;49.45
55187;BME280;55457;52.002;5.464;2024-02-04T11:53:20;101918.78;;;20.90;49.32
55187;BME280;55457;52.002;5.464;2024-02-04T11:55:45;101908.78;;;20.91;49.47
55187;BME280;55457;52.002;5.464;2024-02-04T11:58:11;101912.91;;;20.93;49.57
55187;BME280;55457;52.002;5.464;2024-02-04T12:00:37;101912.09;;;20.93;49.59
55187;BME280;55457;52.002;5.464;2024-02-04T12:03:03;101911.25;;;20.92;49.63
55187;BME280;55457;52.002;5.464;2024-02-04T12:05:35;101905.41;;;20.95;49.43
55187;BME280;55457;52.002;5.464;2024-02-04T12:08:02;101902.69;;;20.95;49.51
55187;BME280;55457;52.002;5.464;2024-02-04T12:10:30;101880.41;;;20.93;49.46
55187;BME280;55457;52.002;5.464;2024-02-04T12:12:57;101889.16;;;20.95;49.31
55187;BME280;55457;52.002;5.464;2024-02-04T12:15:23;101887.50;;;20.94;49.28
55187;BME280;55457;52.002;5.464;2024-02-04T12:17:49;101895.16;;;20.97;49.52
55187;BME280;55457;52.002;5.464;2024-02-04T12:20:14;101888.09;;;20.96;49.22
55187;BME280;55457;52.002;5.464;2024-02-04T12:22:40;101892.91;;;20.94;49.43
55187;BME280;55457;52.002;5.464;2024-02-04T12:25:05;101889.59;;;20.92;49.63
55187;BME280;55457;52.002;5.464;2024-02-04T12:27:31;101889.16;;;20.95;49.53
55187;BME280;55457;52.002;5.464;2024-02-04T12:29:56;101882.06;;;20.94;49.47
55187;BME280;55457;52.002;5.464;2024-02-04T12:32:22;101886.22;;;20.97;49.73
55187;BME280;55457;52.002;5.464;2024-02-04T12:34:51;101874.97;;;20.93;49.41
55187;BME280;55457;52.002;5.464;2024-02-04T12:37:19;101887.03;;;20.97;49.34
55187;BME280;55457;52.002;5.464;2024-02-04T12:39:45;101887.66;;;20.99;49.22
55187;BME280;55457;52.002;5.464;2024-02-04T12:42:17;101883.28;;;20.98;49.36
55187;BME280;55457;52.002;5.464;2024-02-04T12:44:49;101884.94;;;20.99;49.30
55187;BME280;55457;52.002;5.464;2024-02-04T12:47:19;101898.50;;;20.99;49.51
55187;BME280;55457;52.002;5.464;2024-02-04T12:49:44;101891.19;;;21.00;49.90
55187;BME280;55457;52.002;5.464;2024-02-04T12:52:09;101879.53;;;20.99;49.23